Historyczne dane pomiarowe

Dodano dane terminowe – wersja testowa.

Dane z okresu 1951-2019

Wersja bazy: 1.34 [2019-03-16, lista zmian], aktualizacja planowana na 2019-04-15

Dane meteo z obszaru Polski uzyskane na podstawie danych udostępnionych przez Instytut Meteorologii i Gospodarki Wodnej – Państwowy Instytut Badawczy.

 

Wybierz Datę:    

       

TemperaturaWilgotnośćWiatrCiśnienieOpadyŚniegCzas trwania zjawisk
 Stacja t tx tn tng RH VA  wxwx mslp ppp RRR   cm mm wxwxwxwxwxwxwx
2019-07-31 21.7 26.2 16.8 15.8-- 3.7----- 0.0------------
2019-07-30 22.2 30.3 18.2 15.8-- 4.3----- 5.6------------
2019-07-29 23.1 32.3 16.8 14.8-- 3.7----- 1.6------------
2019-07-28 23.3 30.8 19.2 19.3-- 2.0----- 0.0------------
2019-07-27 21.3 27.8 14.8 11.8-- 1.3----- 0.0------------
2019-07-26 20.4 25.8 15.8 12.8-- 2.3----- 0.0------------
2019-07-25 21.3 28.8 12.9 9.8-- 2.3----- 0.0------------
2019-07-24 18.5 25.3 12.4 9.8-- 3.0----- 0.0------------
2019-07-23 20.1 25.3 14.8 13.3-- 1.3----- 0.0------------
2019-07-22 20.7 25.8 17.9 15.8-- 4.3----- 0.0------------
2019-07-21 21.0 30.2 12.9 9.8-- 3.3----- 20.4------------
2019-07-20 20.3 26.3 13.4 10.8-- 1.7----- 0.2------------
2019-07-19 17.6 26.3 8.5 5.9-- 1.7----- 0.0------------
2019-07-18 17.2 22.8 10.0 7.4-- 1.7----- 0.0------------
2019-07-17 14.3 19.3 10.5 7.4-- 6.0----- 2.7------------
2019-07-16 16.7 24.3 9.5 6.9-- 2.3----- 0.0------------
2019-07-15 15.8 22.3 10.0 7.9-- 3.3----- 0.4------------
2019-07-14 16.2 20.8 13.0 11.4-- 3.7----- 6.7------------
2019-07-13 17.3 24.3 12.1 9.8-- 4.0----- 0.9------------
2019-07-12 17.4 23.3 11.5 9.3-- 2.0----- 1.0------------
2019-07-11 14.3 19.3 9.0 7.4-- 3.7----- 4.0------------
2019-07-10 14.3 17.8 11.6 10.8-- 6.0----- 1.8------------
2019-07-09 13.9 19.8 7.2 4.0-- 3.3----- 2.5------------
2019-07-08 14.9 19.8 9.5 6.9-- 2.3----- 0.0------------
2019-07-07 18.7 22.8 15.3 13.3-- 2.3----- 0.0------------
2019-07-06 16.7 22.3 9.0 5.9-- 4.3----- 0.0------------
2019-07-05 15.9 22.8 7.5 4.4-- 3.7----- 0.0------------
2019-07-04 14.9 21.3 6.5 4.4-- 2.0----- 0.0------------
2019-07-03 17.9 24.3 11.0 7.4-- 2.0----- 0.0------------
2019-07-02 22.1 28.8 16.8 16.0-- 4.3----- 0.0------------
2019-07-01 26.0 33.8 17.3 15.8-- 1.3----- 0.0------------
2019-06-30 23.0 30.8 12.5 9.8-- 1.0----- 0.0------------
2019-06-29 17.1 23.8 9.5 6.9-- 2.3----- 0.0------------
2019-06-28 17.4 22.6 13.4 11.8-- 1.7----- 0.0------------
2019-06-27 23.4 27.8 20.7 18.2-- 2.7----- 0.0------------
2019-06-26 23.1 31.8 13.9 11.8-- 1.3----- 2.8------------
2019-06-25 21.3 27.3 13.9 12.0-- 1.3----- 0.0------------
2019-06-24 21.0 25.8 16.3 14.8-- 2.0----- 0.0------------
2019-06-23 20.0 24.3 15.8 15.3-- 4.0----- 0.0------------
2019-06-22 20.7 23.9 17.7 16.8-- 4.0----- 0.0------------
2019-06-21 21.4 28.3 16.3 13.8-- 3.0----- 19.8------------
2019-06-20 23.0 28.8 15.8 14.0-- 1.0----- 0.0------------
2019-06-19 21.0 26.8 15.0 11.8-- 3.3----- 6.7------------
2019-06-18 20.4 25.8 14.8 12.8-- 3.3----- 0.0------------
2019-06-17 20.8 25.9 18.2 18.0-- 1.3----- 0.0------------
2019-06-16 24.5 31.3 17.7 14.8-- 2.0----- 0.0------------
2019-06-15 24.5 31.3 16.3 13.8-- 1.0----- 0.0------------
2019-06-14 22.3 31.3 16.8 14.0-- 3.0----- 22.3------------
2019-06-13 24.9 30.8 17.3 13.3-- 1.0----- 0.0------------
2019-06-12 24.1 31.0 16.8 13.8-- 1.0----- 0.0------------
2019-06-11 22.2 27.6 16.6 15.8-- 1.3----- 0.0------------
2019-06-10 23.0 30.3 18.2 15.8-- 1.3----- 0.0------------
2019-06-09 20.4 27.0 16.0 16.4-- 6.0----- 0.0------------
2019-06-08 20.4 28.0 14.8 14.8-- 1.3----- 0.0------------
2019-06-07 18.7 27.2 12.9 12.8-- 5.0----- 3.7------------
2019-06-06 19.0 26.2 14.3 13.8-- 3.7----- 1.8------------
2019-06-05 18.9 25.4 15.0 15.6-- 4.7----- 0.0------------
2019-06-04 21.0 25.8 18.1 19.0-- 3.0----- 0.0------------
2019-06-03 21.0 27.0 16.6 17.2-- 1.3----- 0.0------------
2019-06-02 19.5 25.2 15.8 15.6-- 2.7----- 0.0------------
76.3 ms

 

Źródłem pochodzenia danych jest Instytut Meteorologii i Gospodarki Wodnej – Państwowy Instytut Badawczy. Dane Instytutu Meteorologii i Gospodarki Wodnej – Państwowego Instytutu Badawczego zostały przetworzone.

Dane źródłowe można odnaleźć na stronie https://dane.imgw.pl